Terminal Aerodrome Forecast
Issued by NWS

Home | Current Version | Previous Version | Text Only | Print | Product List | Glossary On
Versions: 1 2 3 4 5 6 7 8 9 10 11 12 13 14 15 16 17 18 19 20 21 22 23 24 25 26 27
000
FTUS46 KMTR 291419 AAA
TAFSFO
TAF AMD
KSFO 291419Z 2914/3018 25007KT P6SM FEW015 BKN160
     FM291700 29010KT P6SM FEW015
     FM292000 27018G25KT P6SM SKC
     FM292300 27026G34KT P6SM SKC
     FM300200 27030G39KT P6SM SKC
     FM300500 27024G32KT P6SM SCT015
     FM300800 28018G26KT P6SM BKN015
     FM301000 27011KT P6SM BKN015
     FM301600 28006KT P6SM FEW015=

USA.gov is the U.S. government's official web portal to all federal, state and local government web resources and services.